Time;durP1;ratioP1;P1;durP2;ratioP2;P2;SDS_P1;SDS_P2;PMS_P1;PMS_P2;Temp;Humidity;BMP_temperature;BMP_pressure;BME280_temperature;BME280_humidity;BME280_pressure;Samples;Min_cycle;Max_cycle;Signal;HPM_P1;HPM_P2
2022/04/26 03:36:11;;;;;;;10.15;6.10;;;;;;;7.61;nan;101640.09;5053326;28;20120;-48
2022/04/26 03:38:37;;;;;;;10.18;6.45;;;;;;;7.67;nan;101647.91;5052910;28;20417;-51
2022/04/26 03:41:03;;;;;;;10.13;6.68;;;;;;;7.36;nan;101602.72;5068331;28;20131;-51
2022/04/26 03:43:29;;;;;;;12.32;6.72;;;;;;;7.59;nan;101659.31;5051408;28;20032;-52
2022/04/26 03:45:55;;;;;;;8.75;6.45;;;;;;;7.30;nan;101607.13;5051479;28;20128;-51
2022/04/26 03:48:20;;;;;;;10.75;6.78;;;;;;;7.50;nan;101648.91;5068000;28;20044;-50
2022/04/26 03:50:46;;;;;;;9.40;6.85;;;;;;;7.49;nan;101658.50;5051572;28;20052;-51
2022/04/26 03:53:11;;;;;;;9.35;6.80;;;;;;;7.16;nan;101603.72;5067111;28;20037;-52
2022/04/26 03:55:37;;;;;;;10.68;7.47;;;;;;;7.34;nan;101651.63;5052415;28;20087;-51
2022/04/26 03:58:02;;;;;;;11.65;7.70;;;;;;;7.38;nan;101662.97;5052536;28;20437;-52
2022/04/26 04:00:27;;;;;;;12.55;7.28;;;;;;;7.33;nan;101662.09;5052260;28;20029;-56
2022/04/26 04:02:52;;;;;;;12.43;8.02;;;;;;;7.29;nan;101660.38;5052456;28;20045;-54
2022/04/26 04:05:18;;;;;;;15.38;8.07;;;;;;;7.25;nan;101654.28;5052565;28;20029;-50
2022/04/26 04:07:43;;;;;;;11.85;7.88;;;;;;;7.15;nan;101652.59;5052298;28;20491;-53
2022/04/26 04:10:09;;;;;;;12.98;7.43;;;;;;;6.80;nan;101594.31;5052197;28;20041;-48
2022/04/26 04:12:35;;;;;;;13.00;7.75;;;;;;;6.94;nan;101637.03;5052205;28;20029;-51
2022/04/26 04:15:00;;;;;;;14.77;8.10;;;;;;;7.06;nan;101667.50;5067452;28;20086;-49
2022/04/26 04:17:25;;;;;;;12.18;7.95;;;;;;;6.88;nan;101644.03;5052250;28;20037;-52
2022/04/26 04:19:51;;;;;;;11.02;7.13;;;;;;;6.97;nan;101665.78;5052302;28;20041;-50
2022/04/26 04:22:16;;;;;;;15.75;7.40;;;;;;;6.93;nan;101671.03;5051102;28;20495;-51
2022/04/26 04:24:41;;;;;;;14.95;8.43;;;;;;;6.79;nan;101655.41;5051946;28;20061;-49
2022/04/26 04:27:09;;;;;;;9.63;7.50;;;;;;;6.60;nan;101620.56;5052103;28;20037;-53
2022/04/26 04:29:34;;;;;;;12.40;7.85;;;;;;;6.85;nan;101680.66;5066836;28;20040;-47
2022/04/26 04:32:00;;;;;;;13.68;8.35;;;;;;;6.79;nan;101687.69;5067268;28;20341;-53
2022/04/26 04:34:25;;;;;;;14.98;8.18;;;;;;;6.71;nan;101662.41;5051875;28;20118;-53
2022/04/26 04:36:50;;;;;;;10.35;7.82;;;;;;;6.67;nan;101671.13;5052033;28;20033;-53
2022/04/26 04:39:19;;;;;;;12.80;8.63;;;;;;;6.57;nan;101667.66;5051734;28;20468;-52
2022/04/26 04:41:46;;;;;;;17.75;9.52;;;;;;;6.67;nan;101686.84;5051719;28;20039;-52
2022/04/26 04:44:11;;;;;;;17.13;8.50;;;;;;;6.62;nan;101686.88;5066232;28;20388;-52
2022/04/26 04:46:37;;;;;;;14.63;7.20;;;;;;;6.35;0.00;101647.69;5051026;28;20036;-55
2022/04/26 04:49:02;;;;;;;16.08;7.55;;;;;;;;;;5051926;28;20052;-52
2022/04/26 04:51:28;;;;;;;14.20;7.68;;;;;;;;;;5051667;28;20029;-51
2022/04/26 04:53:53;;;;;;;14.25;8.35;;;;;;;;;;5051656;28;20416;-54
2022/04/26 04:56:19;;;;;;;14.90;8.45;;;;;;;;;;5051583;28;20040;-50
2022/04/26 04:58:44;;;;;;;16.55;8.05;;;;;;;;;;5051392;28;20106;-49
2022/04/26 05:01:09;;;;;;;16.27;8.80;;;;;;;;;;5051482;28;20033;-53
2022/04/26 05:03:35;;;;;;;12.03;7.10;;;;;;;;;;5066792;28;20079;-52
2022/04/26 05:06:00;;;;;;;10.60;7.00;;;;;;;;;;5051172;28;20311;-50
2022/04/26 05:08:25;;;;;;;11.53;7.73;;;;;;;;;;5051459;28;20139;-53
2022/04/26 05:10:50;;;;;;;13.00;7.45;;;;;;;;;;5051356;28;20362;-53
2022/04/26 05:13:15;;;;;;;16.58;8.30;;;;;;;;;;5066707;28;20087;-53
2022/04/26 05:15:44;;;;;;;13.30;7.23;;;;;;;;;;5051085;28;20584;-51
2022/04/26 05:18:09;;;;;;;12.35;7.90;;;;;;;;;;5051188;28;20295;-55
2022/04/26 05:20:35;;;;;;;14.40;8.33;;;;;;;;;;5051147;28;20094;-52
2022/04/26 05:25:45;;;;;;;12.15;8.32;;;;;;;;;;5050226;28;20702;-53
2022/04/26 05:28:10;;;;;;;18.33;8.32;;;;;;;;;;5066888;28;20041;-50
2022/04/26 05:30:35;;;;;;;13.98;7.85;;;;;;;;;;5066715;28;20472;-52
2022/04/26 05:33:01;;;;;;;14.88;8.82;;;;;;;;;;5051089;28;20033;-49
2022/04/26 05:35:26;;;;;;;15.30;9.33;;;;;;;;;;5051156;28;20037;-49
2022/04/26 05:37:51;;;;;;;15.43;8.60;;;;;;;;;;5051097;28;20033;-51
2022/04/26 05:40:16;;;;;;;15.02;9.13;;;;;;;;;;5051106;28;20460;-52
2022/04/26 05:42:42;;;;;;;21.05;8.43;;;;;;;;;;5050964;28;20059;-53
2022/04/26 05:45:07;;;;;;;17.88;8.23;;;;;;;;;;5050884;28;20044;-49
2022/04/26 05:47:33;;;;;;;13.20;7.85;;;;;;;;;;5049667;28;20045;-53
2022/04/26 05:49:58;;;;;;;10.48;8.02;;;;;;;;;;5050919;28;20503;-52
2022/04/26 05:52:26;;;;;;;14.80;8.85;;;;;;;;;;5050832;28;20025;-48
2022/04/26 05:54:51;;;;;;;17.02;9.07;;;;;;;;;;5050868;28;20088;-50
2022/04/26 05:57:17;;;;;;;16.13;8.47;;;;;;;;;;5050598;28;20488;-51
2022/04/26 05:59:42;;;;;;;20.10;9.02;;;;;;;;;;5050859;28;20115;-53
2022/04/26 06:02:07;;;;;;;18.57;8.57;;;;;;;;;;5050876;28;20108;-50
2022/04/26 06:04:32;;;;;;;13.07;7.87;;;;;;;;;;5050744;28;20390;-48
2022/04/26 06:06:57;;;;;;;15.10;8.45;;;;;;;;;;5050855;28;20041;-50
2022/04/26 06:09:23;;;;;;;10.68;7.40;;;;;;;-132.32;64.31;60993.34;5050702;28;20044;-56
2022/04/26 06:11:48;;;;;;;18.58;8.40;;;;;;;;;;5050590;28;20041;-55
2022/04/26 06:14:14;;;;;;;15.60;8.20;;;;;;;;;;5050883;28;20040;-52
2022/04/26 06:16:39;;;;;;;15.35;7.55;;;;;;;;;;5051080;28;20287;-51
2022/04/26 06:19:05;;;;;;;14.73;6.95;;;;;;;;;;5054220;28;20048;-53
2022/04/26 06:21:30;;;;;;;15.25;6.63;;;;;;;;;;5069566;28;20055;-51
2022/04/26 06:23:55;;;;;;;13.70;7.30;;;;;;;;;;5054439;28;20065;-51
2022/04/26 06:26:20;;;;;;;14.68;7.45;;;;;;;;;;5053907;28;20041;-48
2022/04/26 06:28:45;;;;;;;12.97;6.83;;;;;;;;;;5054018;28;20029;-46
2022/04/26 06:31:11;;;;;;;11.57;6.00;;;;;;;;;;5054113;28;20048;-53
2022/04/26 06:33:36;;;;;;;11.47;5.60;;;;;;;;;;5053985;28;20294;-47
2022/04/26 06:36:02;;;;;;;10.57;5.18;;;;;;;;;;5053970;28;20025;-51
2022/04/26 06:38:27;;;;;;;9.68;5.80;;;;;;;;;;5054026;28;20040;-55
2022/04/26 06:40:53;;;;;;;11.15;5.47;;;;;;;;;;5053957;28;20029;-50
2022/04/26 06:43:18;;;;;;;10.30;4.97;;;;;;;;;;5054005;28;20391;-48
2022/04/26 06:45:44;;;;;;;10.88;5.70;;;;;;;;;;5053888;28;20090;-52
2022/04/26 06:48:14;;;;;;;10.43;5.13;;;;;;;;;;5053664;28;20484;-52
2022/04/26 06:50:39;;;;;;;10.82;5.15;;;;;;;;;;5053887;28;20065;-50
2022/04/26 06:53:05;;;;;;;9.13;4.63;;;;;;;;;;5053753;28;20052;-51
2022/04/26 06:55:31;;;;;;;9.35;4.35;;;;;;;;;;5053565;28;20068;-51
2022/04/26 06:57:56;;;;;;;7.00;4.68;;;;;;;;;;5053572;28;20395;-51
2022/04/26 07:00:22;;;;;;;7.85;4.45;;;;;;;;;;5053453;28;20039;-48
2022/04/26 07:02:47;;;;;;;9.43;4.30;;;;;;;;;;5053857;28;20044;-51
2022/04/26 07:05:13;;;;;;;7.37;4.20;;;;;;;;;;5052935;28;20329;-51
2022/04/26 07:07:39;;;;;;;9.45;4.47;;;;;;;;;;5052700;28;20318;-48
2022/04/26 07:10:06;;;;;;;9.82;4.80;;;;;;;10.09;nan;101836.88;5053140;28;20317;-52
2022/04/26 07:12:31;;;;;;;10.05;5.35;;;;;;;10.55;nan;101854.63;5052922;28;20032;-50
2022/04/26 07:14:57;;;;;;;8.00;4.88;;;;;;;10.91;nan;101880.34;5053296;28;20036;-50
2022/04/26 07:17:23;;;;;;;13.15;5.07;;;;;;;11.07;nan;101875.66;5052596;28;20421;-50
2022/04/26 07:19:48;;;;;;;9.82;5.03;;;;;;;11.40;nan;101874.16;5052808;28;20040;-53
2022/04/26 07:22:14;;;;;;;8.63;3.95;;;;;;;11.61;nan;101881.66;5053042;28;20112;-54
2022/04/26 07:24:39;;;;;;;7.25;4.05;;;;;;;11.31;nan;101838.31;5052859;28;20096;-50
2022/04/26 07:27:05;;;;;;;8.82;4.18;;;;;;;11.13;nan;101812.31;5053180;28;20029;-53
2022/04/26 07:29:31;;;;;;;9.30;3.97;;;;;;;11.85;nan;101889.09;5053195;28;20037;-52
2022/04/26 07:31:56;;;;;;;9.70;4.25;;;;;;;12.03;nan;101895.75;5068121;28;20056;-54
2022/04/26 07:34:22;;;;;;;12.55;5.13;;;;;;;12.12;nan;101888.50;5052629;28;20065;-51
2022/04/26 07:36:49;;;;;;;10.18;4.03;;;;;;;12.66;nan;101883.72;5053513;28;20170;-49
2022/04/26 07:39:17;;;;;;;5.50;3.50;;;;;;;12.61;nan;101839.84;5052851;28;20044;-56
2022/04/26 07:41:42;;;;;;;7.00;4.00;;;;;;;13.10;nan;101845.63;5052511;28;20502;-53
2022/04/26 07:44:08;;;;;;;6.47;3.63;;;;;;;13.47;nan;101895.72;5051703;28;20131;-53
2022/04/26 07:46:33;;;;;;;8.50;3.70;;;;;;;13.35;nan;101910.16;5052398;28;20464;-53
2022/04/26 07:48:59;;;;;;;8.05;3.33;;;;;;;12.73;nan;101874.72;5050935;28;20029;-52
2022/04/26 07:51:24;;;;;;;7.95;3.13;;;;;;;13.27;nan;101906.84;5052573;28;20037;-53
2022/04/26 07:53:50;;;;;;;9.15;4.05;;;;;;;13.39;nan;101919.75;5051378;28;20674;-56
2022/04/26 07:56:15;;;;;;;7.43;3.70;;;;;;;13.36;nan;101926.91;5051485;28;20082;-50
2022/04/26 07:58:40;;;;;;;6.72;3.63;;;;;;;13.54;nan;101915.81;5052542;28;20034;-49
2022/04/26 08:01:06;;;;;;;5.30;3.60;;;;;;;13.59;nan;101926.25;5050796;28;20039;-49
2022/04/26 08:03:35;;;;;;;6.07;3.75;;;;;;;13.78;nan;101930.13;5052236;28;20083;-53
2022/04/26 08:06:01;;;;;;;7.13;3.40;;;;;;;13.37;nan;101868.66;5052338;28;20037;-56
2022/04/26 08:08:26;;;;;;;6.93;3.55;;;;;;;12.96;nan;101874.13;5051964;28;20413;-54
2022/04/26 08:10:52;;;;;;;8.57;3.25;;;;;;;13.76;nan;101943.41;5052202;28;20048;-52
2022/04/26 08:13:17;;;;;;;6.78;4.13;;;;;;;13.72;nan;101939.09;5052044;28;20059;-51
2022/04/26 08:15:42;;;;;;;9.63;4.18;;;;;;;14.15;nan;101929.94;5052009;28;20115;-50
2022/04/26 08:18:09;;;;;;;7.32;3.33;;;;;;;14.18;nan;101943.09;5050759;28;20126;-53
2022/04/26 08:20:35;;;;;;;5.38;3.78;;;;;;;13.87;nan;101943.09;5052170;28;20056;-53
2022/04/26 08:23:02;;;;;;;8.43;3.78;;;;;;;13.38;nan;101787.56;5051711;28;20126;-55
2022/04/26 08:28:11;;;;;;;6.05;3.63;;;;;;;14.82;nan;101953.47;5050461;28;20619;-49
2022/04/26 08:30:37;;;;;;;4.90;3.20;;;;;;;14.83;nan;101956.97;5050084;28;20036;-55
2022/04/26 08:33:02;;;;;;;6.47;4.30;;;;;;;14.98;nan;101962.63;5051307;28;20029;-57
2022/04/26 08:35:28;;;;;;;3.63;2.97;;;;;;;15.13;nan;101948.88;5051447;28;20029;-55
2022/04/26 08:37:53;;;;;;;8.73;3.83;;;;;;;15.17;nan;101945.22;5051311;28;20044;-52
2022/04/26 08:40:19;;;;;;;6.95;3.35;;;;;;;15.52;nan;101949.34;5051305;28;20045;-53
2022/04/26 08:42:46;;;;;;;6.35;3.90;;;;;;;15.34;nan;101906.63;5051843;28;20029;-54
2022/04/26 08:45:16;;;;;;;4.90;3.13;;;;;;;16.22;nan;101974.19;5051715;28;20064;-55
2022/04/26 08:53:19;;;;;;;6.45;3.20;;;;;;;14.80;nan;101918.16;5064802;28;20403;-53
2022/04/26 08:55:47;;;;;;;4.97;2.90;;;;;;;15.04;nan;101988.09;5051220;28;20029;-52
2022/04/26 08:58:13;;;;;;;4.47;3.03;;;;;;;14.71;nan;101983.88;5051391;28;20542;-52
2022/04/26 09:00:40;;;;;;;3.45;2.47;;;;;;;13.96;nan;101948.13;5051077;28;20036;-51
2022/04/26 09:03:11;;;;;;;3.72;2.78;;;;;;;14.03;nan;101950.56;5066518;28;20041;-54
2022/04/26 09:05:37;;;;;;;3.40;2.78;;;;;;;14.31;nan;101990.34;5051510;28;20396;-52
2022/04/26 09:08:21;;;;;;;4.25;2.45;;;;;;;14.40;nan;101997.19;5050000;28;20033;-56
2022/04/26 09:10:48;;;;;;;4.63;2.20;;;;;;;15.33;nan;101974.72;5044511;28;20037;-54
2022/04/26 09:13:15;;;;;;;3.90;2.55;;;;;;;15.58;nan;101975.66;5029813;28;20034;-50
2022/04/26 09:15:49;;;;;;;4.63;2.83;;;;;;;16.43;nan;102008.84;5029594;28;20048;-51
2022/04/26 09:18:21;;;;;;;4.75;1.92;;;;;;;16.37;nan;101993.13;5031577;28;20033;-52
2022/04/26 09:20:49;;;;;;;4.35;2.35;;;;;;;16.03;nan;101948.34;5031083;28;20423;-50
2022/04/26 09:23:15;;;;;;;5.63;2.60;;;;;;;16.67;nan;101952.94;5031061;28;20037;-49
2022/04/26 09:25:41;;;;;;;3.45;1.88;;;;;;;16.32;nan;101942.78;5030966;28;20038;-52
2022/04/26 09:28:07;;;;;;;8.90;2.72;;;;;;;15.59;nan;102003.91;5013561;28;20052;-49
2022/04/26 09:30:33;;;;;;;3.45;2.50;;;;;;;14.60;nan;102008.91;5029710;28;20041;-50
2022/04/26 09:32:58;;;;;;;4.38;2.38;;;;;;;14.26;nan;102015.22;5031009;28;20091;-49
2022/04/26 09:35:29;;;;;;;4.25;3.17;;;;;;;14.87;nan;102012.50;5030985;28;20033;-50
2022/04/26 09:37:55;;;;;;;4.25;2.80;;;;;;;15.70;nan;101995.59;5031079;28;20029;-49
2022/04/26 09:40:20;;;;;;;3.95;2.42;;;;;;;15.89;nan;101951.53;5031284;28;20439;-50
2022/04/26 09:42:48;;;;;;;4.07;2.60;;;;;;;16.94;nan;101955.41;5031031;28;20446;-53
2022/04/26 09:45:15;;;;;;;4.45;2.28;;;;;;;17.93;nan;102022.13;5031337;28;20120;-49
2022/04/26 09:47:41;;;;;;;5.85;2.78;;;;;;;17.69;nan;102025.88;5029727;28;20189;-50
2022/04/26 09:50:12;;;;;;;5.40;2.33;;;;;;;18.77;nan;102032.50;5029901;28;20025;-50
2022/04/26 09:52:38;;;;;;;3.17;2.38;;;;;;;18.62;nan;101963.91;5031867;28;20029;-49
2022/04/26 09:55:05;;;;;;;5.40;2.60;;;;;;;19.37;nan;102020.66;5033837;28;20037;-55
2022/04/26 09:57:36;;;;;;;6.63;3.50;;;;;;;19.84;nan;102019.13;5033670;28;20030;-57
2022/04/26 10:00:09;;;;;;;6.45;3.00;;;;;;;19.29;nan;102026.38;5034958;28;20029;-54
2022/04/26 10:02:36;;;;;;;4.20;2.85;;;;;;;17.10;nan;101941.44;5033604;28;20021;-55
2022/04/26 10:05:04;;;;;;;3.40;2.60;;;;;;;15.88;nan;102020.63;5034444;28;20034;-54
2022/04/26 10:07:34;;;;;;;5.50;2.88;;;;;;;15.07;nan;102027.75;5034463;28;20044;-54
2022/04/26 10:09:59;;;;;;;8.63;3.40;;;;;;;15.30;nan;102029.66;5032402;28;20045;-53
2022/04/26 10:12:25;;;;;;;4.28;2.70;;;;;;;15.95;nan;102033.63;5033903;28;20190;-53
2022/04/26 10:14:50;;;;;;;5.57;3.15;;;;;;;16.94;nan;102024.56;5033738;28;20061;-53
2022/04/26 10:17:20;;;;;;;5.80;2.45;;;;;;;17.93;nan;101995.50;5034077;28;20040;-52
2022/04/26 10:19:45;;;;;;;3.72;2.80;;;;;;;18.90;nan;102021.19;5034180;28;20044;-52
2022/04/26 10:22:14;;;;;;;3.67;2.30;;;;;;;18.93;nan;101970.34;5033040;28;20040;-57
2022/04/26 10:24:40;;;;;;;3.45;2.28;;;;;;;17.83;nan;102018.16;5034206;28;20404;-54
2022/04/26 10:27:25;;;;;;;6.53;3.15;;;;;;;16.82;nan;102021.47;5032848;28;20469;-54
2022/04/26 10:29:51;;;;;;;3.88;2.95;;;;;;;15.98;nan;102017.56;5033122;28;20176;-56
2022/04/26 10:32:30;;;;;;;4.50;2.80;;;;;;;15.49;nan;102033.50;5032890;28;20052;-58
2022/04/26 10:34:55;;;;;;;6.32;3.00;;;;;;;14.96;nan;102043.16;5032689;28;20025;-57
2022/04/26 10:37:21;;;;;;;4.88;2.65;;;;;;;15.90;nan;102026.75;5016336;28;20029;-57
2022/04/26 10:39:58;;;;;;;4.35;2.97;;;;;;;16.86;nan;101975.22;5034205;28;20030;-52
2022/04/26 10:42:28;;;;;;;6.32;2.78;;;;;;;17.29;nan;101971.66;5033918;28;20554;-56
2022/04/26 10:45:10;;;;;;;3.45;2.35;;;;;;;17.72;nan;102039.91;5032975;28;20039;-53
2022/04/26 10:47:36;;;;;;;5.43;2.85;;;;;;;19.23;nan;102029.34;5032614;28;20056;-58
2022/04/26 10:50:03;;;;;;;4.28;2.40;;;;;;;19.52;nan;102035.94;5034798;28;20060;-56
2022/04/26 10:52:33;;;;;;;5.13;2.30;;;;;;;20.03;nan;102041.25;5033914;28;20025;-57
2022/04/26 10:54:59;;;;;;;3.80;2.70;;;;;;;20.40;nan;102040.16;5032439;28;20038;-59
2022/04/26 10:57:26;;;;;;;4.10;2.33;;;;;;;19.02;nan;102047.28;5033752;28;20387;-54
2022/04/26 10:59:54;;;;;;;5.20;2.88;;;;;;;17.11;nan;101945.81;5032488;28;20033;-57
2022/04/26 11:02:23;;;;;;;7.03;3.30;;;;;;;16.56;nan;102042.00;5048642;28;20088;-59
2022/04/26 11:05:01;;;;;;;4.72;3.03;;;;;;;15.55;nan;102049.22;5033561;28;20041;-58
2022/04/26 11:07:28;;;;;;;4.32;2.70;;;;;;;14.48;nan;102043.72;5033198;28;20069;-51
2022/04/26 11:09:56;;;;;;;4.25;3.65;;;;;;;14.22;nan;102035.63;5033770;28;20040;-56
2022/04/26 11:12:58;;;;;;;5.05;2.90;;;;;;;14.53;nan;102039.19;5146710;23;20052;-53
2022/04/26 11:15:25;;;;;;;4.50;2.90;;;;;;;16.14;nan;102045.31;5021256;28;20091;-59
2022/04/26 11:17:52;;;;;;;5.40;3.03;;;;;;;16.73;nan;102052.88;5033039;28;20041;-55
2022/04/26 11:20:20;;;;;;;5.50;3.05;;;;;;;17.76;nan;102006.03;5015514;28;20036;-58
2022/04/26 11:22:50;;;;;;;5.22;3.13;;;;;;;16.19;nan;101984.94;5031670;28;20448;-56
2022/04/26 11:28:11;;;;;;;4.82;3.25;;;;;;;18.04;nan;102054.50;5032395;28;20068;-53
2022/04/26 11:30:38;;;;;;;4.55;3.20;;;;;;;18.71;nan;102060.31;5033081;28;20068;-56
2022/04/26 11:33:07;;;;;;;4.18;2.60;;;;;;;18.99;nan;102070.56;5033257;28;20116;-58
2022/04/26 11:35:34;;;;;;;3.97;2.63;;;;;;;19.46;nan;102006.88;5033194;28;20094;-56
2022/04/26 11:38:11;;;;;;;4.53;2.92;;;;;;;19.91;nan;102052.56;5033122;28;20120;-55
2022/04/26 11:40:42;;;;;;;3.67;2.25;;;;;;;20.17;nan;102069.91;5032899;28;20095;-53
2022/04/26 11:43:10;;;;;;;5.43;2.22;;;;;;;20.05;nan;102059.91;5015181;28;20041;-54
2022/04/26 11:45:36;;;;;;;2.97;2.03;;;;;;;19.90;nan;102085.59;5032967;28;20051;-58
2022/04/26 11:48:02;;;;;;;1.83;1.73;;;;;;;19.88;nan;102009.09;5032829;28;20049;-57
2022/04/26 11:50:29;;;;;;;2.40;1.70;;;;;;;20.25;nan;102064.19;5014979;28;20034;-58
2022/04/26 11:53:09;;;;;;;3.40;1.50;;;;;;;19.23;nan;102088.09;5008036;28;20033;-54
2022/04/26 11:55:38;;;;;;;3.55;1.80;;;;;;;18.92;nan;102083.34;5014153;28;20021;-54
2022/04/26 11:58:18;;;;;;;4.15;1.88;;;;;;;20.08;nan;102081.13;5032285;28;20033;-56
2022/04/26 12:00:59;;;;;;;4.65;1.77;;;;;;;20.32;nan;102095.00;5032276;28;20025;-54
2022/04/26 12:03:27;;;;;;;3.45;1.80;;;;;;;20.16;nan;102089.59;5032116;28;20041;-55
2022/04/26 12:06:01;;;;;;;3.00;1.70;;;;;;;19.33;nan;102093.81;5032155;28;20040;-59
2022/04/26 12:08:28;;;;;;;3.90;2.00;;;;;;;20.31;nan;102091.50;5032019;28;20036;-57
2022/04/26 12:10:54;;;;;;;2.30;1.83;;;;;;;21.53;nan;102090.91;5031755;28;20095;-56
2022/04/26 12:13:30;;;;;;;4.25;2.13;;;;;;;20.91;nan;102047.13;5031463;28;20053;-52
2022/04/26 12:16:12;;;;;;;1.75;1.60;;;;;;;21.30;nan;102090.44;5049063;28;20033;-54
2022/04/26 12:18:49;;;;;;;3.63;1.50;;;;;;;21.53;nan;102101.63;5051936;28;20041;-54
2022/04/26 12:21:15;;;;;;;1.92;1.60;;;;;;;21.11;nan;102102.25;5051636;28;20102;-53
2022/04/26 12:23:40;;;;;;;2.42;1.42;;;;;;;21.06;nan;102094.47;5033942;28;20469;-57
2022/04/26 12:26:08;;;;;;;1.75;1.20;;;;;;;21.44;nan;102095.00;5034335;28;20056;-56
2022/04/26 12:28:44;;;;;;;3.00;1.40;;;;;;;21.77;nan;102060.00;5034515;28;20499;-55
2022/04/26 12:31:28;;;;;;;1.60;1.38;;;;;;;22.15;nan;102096.13;5052094;28;20051;-53
2022/04/26 12:34:12;;;;;;;3.40;1.60;;;;;;;22.18;nan;102066.41;5052001;28;20025;-55
2022/04/26 12:36:57;;;;;;;2.78;1.60;;;;;;;21.52;nan;102107.91;5036677;28;20047;-49
2022/04/26 12:39:23;;;;;;;2.53;1.40;;;;;;;21.32;nan;102106.41;5033870;28;20083;-51
2022/04/26 12:41:51;;;;;;;1.73;1.50;;;;;;;21.00;nan;102088.59;5052044;28;20040;-55
2022/04/26 12:44:17;;;;;;;3.70;1.77;;;;;;;20.78;nan;102121.88;5051704;28;20494;-58
2022/04/26 12:50:28;;;;;;;3.20;1.80;;;;;;;19.69;nan;102120.56;5034170;28;20055;-56
2022/04/26 12:52:47;;;;;;;4.38;2.40;;;;;;;20.60;nan;102090.78;5051953;28;20043;-55
2022/04/26 12:55:31;;;;;;;2.95;1.88;;;;;;;20.85;nan;102060.84;5051608;28;20482;-53
2022/04/26 12:58:02;;;;;;;3.08;1.70;;;;;;;20.98;nan;102058.38;5051493;28;20033;-55
2022/04/26 13:00:27;;;;;;;;;;;;;;;21.16;nan;102105.56;5052123;28;20032;-57
2022/04/26 13:02:56;;;;;;;3.83;1.60;;;;;;;20.86;nan;102059.91;5051537;28;20356;-56
2022/04/26 13:05:21;;;;;;;3.28;1.90;;;;;;;20.68;nan;102109.97;5051265;28;20487;-57
2022/04/26 13:07:47;;;;;;;1.77;1.55;;;;;;;20.47;nan;102067.44;5051474;28;20033;-55
2022/04/26 13:10:14;;;;;;;2.85;1.70;;;;;;;20.57;nan;102109.69;5049970;28;20399;-58
2022/04/26 13:12:40;;;;;;;2.55;1.73;;;;;;;21.29;nan;102115.47;5032843;28;20492;-58
2022/04/26 13:15:08;;;;;;;3.03;2.00;;;;;;;22.01;nan;102122.88;5051560;28;20033;-55
2022/04/26 13:17:34;;;;;;;3.03;2.05;;;;;;;22.14;nan;102139.09;5033127;28;20479;-56
2022/04/26 13:20:00;;;;;;;3.33;2.03;;;;;;;21.94;nan;102134.06;5051341;28;20124;-57
2022/04/26 13:22:25;;;;;;;2.80;2.10;;;;;;;21.94;nan;102123.34;5051129;28;20112;-54
2022/04/26 13:24:51;;;;;;;3.65;2.05;;;;;;;21.03;nan;102107.16;5051114;28;20123;-52
2022/04/26 13:27:18;;;;;;;4.50;2.45;;;;;;;21.12;nan;102120.06;5057043;28;20033;-56
2022/04/26 13:29:44;;;;;;;4.63;2.20;;;;;;;22.27;nan;102132.06;5057217;28;20033;-55
2022/04/26 13:32:09;;;;;;;2.63;1.85;;;;;;;22.07;nan;102121.63;5058013;28;20373;-53
2022/04/26 13:34:34;;;;;;;2.55;2.10;;;;;;;22.36;nan;102123.41;5059020;28;20048;-52
2022/04/26 13:37:00;;;;;;;4.22;2.00;;;;;;;22.12;nan;102088.25;5057796;28;20468;-56
2022/04/26 13:39:25;;;;;;;4.00;2.20;;;;;;;22.04;nan;102111.97;5039630;28;20040;-54
2022/04/26 13:41:51;;;;;;;3.33;1.98;;;;;;;20.86;nan;102089.34;5057498;28;20135;-55
2022/04/26 13:44:19;;;;;;;3.83;1.92;;;;;;;21.08;nan;102123.84;5039593;28;20051;-59
2022/04/26 13:46:48;;;;;;;2.35;1.80;;;;;;;21.37;nan;102108.78;5017532;28;20029;-59
2022/04/26 13:49:14;;;;;;;2.72;1.77;;;;;;;21.50;nan;102061.63;5036124;28;20029;-52
2022/04/26 13:51:39;;;;;;;4.25;1.98;;;;;;;21.75;nan;102072.59;5037591;28;20045;-52
2022/04/26 13:54:04;;;;;;;1.90;1.65;;;;;;;21.17;nan;102072.44;5037227;28;20057;-55
2022/04/26 13:56:30;;;;;;;2.45;1.83;;;;;;;21.39;nan;102072.09;5037411;28;20042;-59
2022/04/26 13:58:55;;;;;;;3.25;1.88;;;;;;;20.88;nan;102111.53;5020025;28;20033;-59
2022/04/26 14:01:22;;;;;;;3.92;2.10;;;;;;;20.96;nan;102109.28;5019950;28;20120;-55
2022/04/26 14:03:49;;;;;;;2.58;1.90;;;;;;;21.39;nan;102102.44;5033567;28;20096;-56
2022/04/26 14:06:15;;;;;;;4.40;2.35;;;;;;;22.07;nan;102116.28;5019101;28;20465;-56
2022/04/26 14:08:43;;;;;;;3.88;2.10;;;;;;;21.20;nan;102118.66;5036615;28;20037;-59
2022/04/26 14:11:08;;;;;;;3.83;2.17;;;;;;;20.54;nan;102111.66;5036756;28;20116;-57
2022/04/26 14:21:47;;;;;;;2.63;1.80;;;;;;;20.56;nan;102109.75;5019196;28;20153;-57
2022/04/26 14:21:47;;;;;;;2.85;1.50;;;;;;;19.96;nan;102066.59;5037165;28;20043;-56
2022/04/26 14:24:12;;;;;;;2.53;1.73;;;;;;;19.89;nan;102072.31;5041923;28;20037;-58
2022/04/26 14:26:41;;;;;;;2.95;1.73;;;;;;;20.76;nan;102121.09;5035318;28;20045;-56
2022/04/26 14:29:07;;;;;;;5.75;2.00;;;;;;;20.05;nan;102127.56;5037088;28;20033;-56
2022/04/26 14:31:32;;;;;;;2.35;1.83;;;;;;;20.74;nan;102122.16;5042134;28;20128;-56
2022/04/26 14:33:58;;;;;;;3.25;2.10;;;;;;;19.62;nan;102131.53;5054044;28;20135;-58
2022/04/26 14:36:23;;;;;;;4.07;1.85;;;;;;;18.71;nan;102079.00;5059205;23;20569;-55
2022/04/26 14:38:49;;;;;;;2.67;2.00;;;;;;;19.21;nan;102121.09;5033191;28;20037;-58
2022/04/26 14:41:14;;;;;;;4.20;2.22;;;;;;;19.83;nan;102118.03;5016161;28;20078;-56
2022/04/26 14:43:39;;;;;;;2.85;2.20;;;;;;;19.52;nan;102116.94;5033682;28;20037;-53
2022/04/26 14:46:05;;;;;;;2.58;1.80;;;;;;;20.15;nan;102125.28;5033956;28;20067;-57
2022/04/26 14:48:30;;;;;;;4.40;2.55;;;;;;;20.05;nan;102119.53;5033834;28;20496;-59
2022/04/26 14:50:56;;;;;;;4.30;2.70;;;;;;;19.73;nan;102082.06;5033993;28;20513;-54
2022/04/26 14:53:22;;;;;;;3.35;2.40;;;;;;;19.81;nan;102127.97;5033812;28;20048;-56
2022/04/26 14:55:47;;;;;;;5.97;2.42;;;;;;;19.85;nan;102121.53;5034018;28;20045;-53
2022/04/26 14:58:14;;;;;;;3.35;2.00;;;;;;;19.77;nan;102075.59;5033940;28;20029;-58
2022/04/26 15:00:39;;;;;;;4.95;2.22;;;;;;;20.31;nan;102120.03;5033869;28;20437;-49
2022/04/26 15:03:05;;;;;;;3.05;2.25;;;;;;;19.79;nan;102061.22;5033550;28;20128;-57
2022/04/26 15:05:30;;;;;;;2.78;1.90;;;;;;;19.70;nan;102131.19;5033676;28;20037;-56
2022/04/26 15:10:39;;;;;;;2.83;2.30;;;;;;;19.07;nan;102074.59;5033736;28;20052;-58
2022/04/26 15:16:49;;;;;;;4.55;2.20;;;;;;;18.66;nan;102107.69;5033552;28;20139;-54
2022/04/26 15:18:43;;;;;;;3.15;1.83;;;;;;;18.64;nan;102096.25;5010757;28;20107;-56
2022/04/26 15:21:09;;;;;;;2.33;1.80;;;;;;;18.91;nan;102126.94;5032186;28;20034;-57
2022/04/26 15:23:35;;;;;;;2.70;2.17;;;;;;;18.31;nan;102124.38;5033218;28;20039;-53
2022/04/26 15:26:03;;;;;;;2.72;1.98;;;;;;;17.87;nan;102070.34;5033207;28;20560;-54
2022/04/26 15:28:30;;;;;;;2.58;1.98;;;;;;;18.15;nan;102123.31;5033251;28;20204;-56
2022/04/26 15:30:55;;;;;;;3.28;2.03;;;;;;;17.61;nan;102106.09;5033172;28;20030;-58
2022/04/26 15:33:22;;;;;;;1.90;1.63;;;;;;;18.14;nan;102129.56;5015463;28;20070;-52
2022/04/26 15:35:47;;;;;;;5.25;2.20;;;;;;;17.24;nan;102120.00;5015253;28;20057;-56
2022/04/26 15:38:13;;;;;;;2.88;2.13;;;;;;;17.12;nan;102123.13;5014976;28;20037;-57
2022/04/26 15:40:43;;;;;;;4.68;2.63;;;;;;;16.33;nan;102057.00;5032801;28;20041;-54
2022/04/26 15:43:08;;;;;;;3.80;2.63;;;;;;;16.83;nan;102132.25;5015729;28;20033;-56
2022/04/26 15:45:34;;;;;;;5.28;2.17;;;;;;;16.75;nan;102122.81;5032880;28;20037;-51
2022/04/26 15:48:00;;;;;;;6.38;2.20;;;;;;;16.45;nan;102068.09;5032865;28;20192;-59
2022/04/26 15:50:27;;;;;;;3.67;2.10;;;;;;;17.02;nan;102126.19;5013986;28;20038;-55
2022/04/26 15:52:52;;;;;;;4.57;2.30;;;;;;;16.90;nan;102105.41;5032524;28;20034;-56
2022/04/26 15:55:17;;;;;;;4.05;2.28;;;;;;;17.19;nan;102137.06;5032708;28;20041;-53
2022/04/26 15:57:47;;;;;;;6.25;2.45;;;;;;;16.38;nan;102072.78;5032337;28;20341;-54
2022/04/26 16:00:13;;;;;;;6.78;3.13;;;;;;;16.05;nan;102122.66;5032520;28;20041;-53
2022/04/26 16:02:40;;;;;;;5.28;2.70;;;;;;;15.39;nan;102132.84;5032374;28;20044;-54
2022/04/26 16:05:06;;;;;;;4.18;2.63;;;;;;;15.26;nan;102127.06;5032468;28;20033;-50
2022/04/26 16:07:32;;;;;;;5.03;2.42;;;;;;;14.82;nan;102131.06;5014520;28;20033;-52
2022/04/26 16:20:53;;;;;;;5.28;2.22;;;;;;;13.94;nan;102088.47;5032765;28;20135;-49
2022/04/26 16:23:19;;;;;;;3.25;2.53;;;;;;;13.60;nan;102081.47;5032303;28;20037;-49